createdAt,value
2023-02-07T00:00:57.596Z,102437.72
2023-02-07T00:06:12.133Z,102405.56
2023-02-07T00:11:17.534Z,102413.06
2023-02-07T00:16:21.696Z,102422.78
2023-02-07T00:21:26.082Z,102424.44
2023-02-07T00:26:29.396Z,102404.84
2023-02-07T00:31:34.637Z,102384.84
2023-02-07T00:36:40.224Z,102400.22
2023-02-07T00:41:44.232Z,102375.91
2023-02-07T00:46:47.417Z,102404.66
2023-02-07T00:51:50.556Z,102411.47
2023-02-07T00:56:53.566Z,102408.22
2023-02-07T01:02:00.028Z,102400.72
2023-02-07T01:07:03.382Z,102394.00
2023-02-07T01:12:06.558Z,102397.56
2023-02-07T01:17:09.607Z,102392.75
2023-02-07T01:22:12.650Z,102418.25
2023-02-07T01:27:15.779Z,102450.34
2023-02-07T01:32:18.856Z,102429.28
2023-02-07T01:37:21.913Z,102436.31
2023-02-07T01:42:27.458Z,102413.66
2023-02-07T01:47:32.232Z,102437.41
2023-02-07T01:52:40.012Z,102447.19
2023-02-07T01:57:45.437Z,102436.69
2023-02-07T02:02:48.514Z,102425.88
2023-02-07T02:07:52.798Z,102447.69
2023-02-07T02:13:15.081Z,102467.94
2023-02-07T02:18:23.880Z,102453.13
2023-02-07T02:23:57.853Z,102447.31
2023-02-07T02:29:18.989Z,102443.94
2023-02-07T02:34:33.104Z,102433.44
2023-02-07T02:39:54.509Z,102433.59
2023-02-07T02:45:37.183Z,102433.06
2023-02-07T02:50:45.696Z,102438.41
2023-02-07T02:56:06.196Z,102407.13
2023-02-07T03:01:20.356Z,102437.66
2023-02-07T03:06:43.722Z,102437.44
2023-02-07T03:12:05.080Z,102416.56
2023-02-07T03:17:34.323Z,102430.91
2023-02-07T03:22:42.187Z,102422.16
2023-02-07T03:27:47.233Z,102421.25
2023-02-07T03:32:56.831Z,102412.44
2023-02-07T03:38:02.465Z,102424.88
2023-02-07T03:43:08.417Z,102428.47
2023-02-07T03:48:11.561Z,102420.88
2023-02-07T03:53:14.686Z,102447.03
2023-02-07T03:58:17.801Z,102409.97
2023-02-07T04:03:20.846Z,102418.53
2023-02-07T04:08:24.190Z,102445.84
2023-02-07T04:13:27.761Z,102455.97
2023-02-07T04:18:31.247Z,102468.81
2023-02-07T04:23:35.410Z,102445.72
2023-02-07T04:28:38.580Z,102430.16
2023-02-07T04:33:41.601Z,102440.56
2023-02-07T04:38:45.111Z,102447.34
2023-02-07T04:43:48.122Z,102438.81
2023-02-07T04:48:51.328Z,102456.44
2023-02-07T04:53:56.894Z,102469.13
2023-02-07T04:58:59.880Z,102459.00
2023-02-07T05:04:03.075Z,102476.91
2023-02-07T05:09:06.498Z,102471.97
2023-02-07T05:14:09.628Z,102433.09
2023-02-07T05:19:13.089Z,102478.88
2023-02-07T05:24:16.212Z,102493.91
2023-02-07T05:29:19.459Z,102509.53
2023-02-07T05:34:23.868Z,102477.22
2023-02-07T05:39:27.005Z,102478.00
2023-02-07T05:44:30.148Z,102502.75
2023-02-07T05:49:33.119Z,102513.91
2023-02-07T05:54:36.269Z,102515.09
2023-02-07T05:59:39.309Z,102508.50
2023-02-07T06:04:42.389Z,102517.75
2023-02-07T06:09:45.418Z,102514.69
2023-02-07T06:14:48.485Z,102526.59
2023-02-07T06:19:53.627Z,102499.16
2023-02-07T06:24:56.819Z,102529.84
2023-02-07T06:29:59.926Z,102530.91
2023-02-07T06:35:03.268Z,102527.44
2023-02-07T06:40:06.845Z,102525.53
2023-02-07T06:45:10.384Z,102508.09
2023-02-07T06:50:13.598Z,102528.78
2023-02-07T06:55:16.782Z,102504.84
2023-02-07T07:00:21.092Z,102499.56
2023-02-07T07:05:24.372Z,102517.66
2023-02-07T07:10:27.771Z,102502.72
2023-02-07T07:15:30.909Z,102509.25
2023-02-07T07:20:34.007Z,102513.44
2023-02-07T07:25:37.378Z,102539.88
2023-02-07T07:30:40.796Z,102537.72
2023-02-07T07:35:43.922Z,102565.22
2023-02-07T07:40:46.921Z,102563.19
2023-02-07T07:45:57.777Z,102547.59
2023-02-07T07:51:00.978Z,102540.59
2023-02-07T07:56:04.469Z,102538.97
2023-02-07T08:01:07.676Z,102566.84
2023-02-07T08:06:11.117Z,102560.56
2023-02-07T08:11:14.455Z,102561.59
2023-02-07T08:16:19.214Z,102542.97
2023-02-07T08:21:22.746Z,102553.91
2023-02-07T08:26:26.119Z,102558.00
2023-02-07T08:31:29.318Z,102538.09
2023-02-07T08:36:32.441Z,102523.59
2023-02-07T08:41:35.748Z,102521.91
2023-02-07T08:46:38.825Z,102504.09
2023-02-07T08:51:43.039Z,102484.75
2023-02-07T08:56:46.152Z,102499.34
2023-02-07T09:01:49.241Z,102524.72
2023-02-07T09:06:52.390Z,102523.25
2023-02-07T09:11:55.506Z,102527.22
2023-02-07T09:16:58.619Z,102531.69
2023-02-07T09:22:01.692Z,102538.31
2023-02-07T09:27:04.726Z,102516.72
2023-02-07T09:32:07.891Z,102528.78
2023-02-07T09:37:11.651Z,102527.25
2023-02-07T09:42:34.258Z,102522.84
2023-02-07T09:47:41.872Z,102513.81
2023-02-07T09:52:59.319Z,102531.44
2023-02-07T09:58:42.872Z,102531.25
2023-02-07T10:04:18.170Z,102514.50
2023-02-07T10:09:33.946Z,102497.59
2023-02-07T10:15:02.031Z,102516.69
2023-02-07T10:20:50.718Z,102496.06
2023-02-07T10:26:02.654Z,102502.75
2023-02-07T10:31:14.065Z,102484.41
2023-02-07T10:36:18.864Z,102464.13
2023-02-07T10:41:34.784Z,102486.41
2023-02-07T10:46:41.117Z,102470.16
2023-02-07T10:51:46.178Z,102482.03
2023-02-07T10:56:52.835Z,102471.78
2023-02-07T11:01:57.449Z,102487.56
2023-02-07T11:07:02.785Z,102465.34
2023-02-07T11:12:23.640Z,102490.53
2023-02-07T11:17:26.941Z,102482.91
2023-02-07T11:22:30.113Z,102496.03
2023-02-07T11:27:42.774Z,102483.47
2023-02-07T11:33:03.163Z,102465.28
2023-02-07T11:38:15.882Z,102479.81
2023-02-07T11:43:23.226Z,102498.03
2023-02-07T11:48:28.475Z,102498.97
2023-02-07T11:53:37.654Z,102504.41
2023-02-07T11:58:47.745Z,102490.50
2023-02-07T12:04:01.211Z,102483.53
2023-02-07T12:09:10.535Z,102513.06
2023-02-07T12:14:27.779Z,102489.91
2023-02-07T12:19:36.258Z,102521.63
2023-02-07T12:24:57.081Z,102546.28
2023-02-07T12:30:18.253Z,102523.78
2023-02-07T12:35:39.264Z,102502.16
2023-02-07T12:40:59.961Z,102526.00
2023-02-07T12:46:23.198Z,102526.13
2023-02-07T12:51:44.209Z,102533.97
2023-02-07T12:56:57.606Z,102536.63
2023-02-07T13:02:19.188Z,102525.13
2023-02-07T13:07:37.165Z,102537.94
2023-02-07T13:12:58.759Z,102532.09
2023-02-07T13:18:12.089Z,102530.38
2023-02-07T13:23:26.773Z,102525.06
2023-02-07T13:28:46.099Z,102516.97
2023-02-07T13:33:51.057Z,102519.53
2023-02-07T13:39:14.595Z,102543.59
2023-02-07T13:44:35.184Z,102533.56
2023-02-07T13:50:21.558Z,102550.88
2023-02-07T13:55:32.719Z,102546.63
2023-02-07T14:00:56.433Z,102565.81
2023-02-07T14:06:26.787Z,102579.53
2023-02-07T14:11:44.397Z,102596.31
2023-02-07T14:16:58.656Z,102560.53
2023-02-07T14:22:28.046Z,102588.91
2023-02-07T14:27:35.256Z,102619.91
2023-02-07T14:32:40.955Z,102620.44
2023-02-07T14:37:54.455Z,102611.78
2023-02-07T14:43:35.243Z,102651.97
2023-02-07T14:48:49.132Z,102638.41
2023-02-07T14:54:13.972Z,102653.75
2023-02-07T14:59:29.170Z,102668.63
2023-02-07T15:04:36.430Z,102711.38
2023-02-07T15:09:39.479Z,102681.78
2023-02-07T15:14:42.591Z,102701.44
2023-02-07T15:19:45.650Z,102712.34
2023-02-07T15:24:51.861Z,102691.84
2023-02-07T15:30:01.240Z,102674.94
2023-02-07T15:35:18.912Z,102696.78
2023-02-07T15:40:26.663Z,102728.81
2023-02-07T15:45:32.615Z,102710.34
2023-02-07T15:50:37.399Z,102719.72
2023-02-07T15:55:46.271Z,102712.09
2023-02-07T16:00:53.565Z,102710.00
2023-02-07T16:06:09.896Z,102738.66
2023-02-07T16:11:38.108Z,102752.19
2023-02-07T16:16:52.654Z,102767.56
2023-02-07T16:22:12.569Z,102777.44
2023-02-07T16:27:21.107Z,102763.88
2023-02-07T16:32:28.171Z,102744.81
2023-02-07T16:37:31.149Z,102768.88
2023-02-07T16:42:34.232Z,102746.41
2023-02-07T16:47:37.288Z,102782.31
2023-02-07T16:52:40.309Z,102763.66
2023-02-07T16:57:44.871Z,102776.47
2023-02-07T17:02:50.640Z,102749.59
2023-02-07T17:07:53.699Z,102755.38
2023-02-07T17:12:57.051Z,102796.53
2023-02-07T17:18:00.203Z,102800.50
2023-02-07T17:23:03.300Z,102801.31
2023-02-07T17:28:06.494Z,102802.97
2023-02-07T17:33:10.950Z,102785.75
2023-02-07T17:38:14.066Z,102787.50
2023-02-07T17:43:17.118Z,102835.63
2023-02-07T17:48:20.125Z,102836.09
2023-02-07T17:53:23.571Z,102845.09
2023-02-07T17:58:26.694Z,102849.88
2023-02-07T18:03:29.704Z,102820.72
2023-02-07T18:08:32.729Z,102833.72
2023-02-07T18:13:35.842Z,102855.19
2023-02-07T18:18:40.230Z,102845.16
2023-02-07T18:23:43.398Z,102830.91
2023-02-07T18:28:46.973Z,102854.53
2023-02-07T18:33:51.452Z,102865.44
2023-02-07T18:38:54.520Z,102863.41
2023-02-07T18:43:57.552Z,102842.38
2023-02-07T18:49:00.759Z,102861.63
2023-02-07T18:54:03.923Z,102865.59
2023-02-07T18:59:07.202Z,102891.97
2023-02-07T19:04:10.224Z,102883.25
2023-02-07T19:09:14.133Z,102874.59
2023-02-07T19:14:26.786Z,102872.78
2023-02-07T19:19:31.383Z,102875.66
2023-02-07T19:24:34.391Z,102875.59
2023-02-07T19:29:37.538Z,102848.50
2023-02-07T19:34:40.572Z,102888.03
2023-02-07T19:39:46.433Z,102893.13
2023-02-07T19:44:49.971Z,102875.16
2023-02-07T19:49:53.078Z,102899.84
2023-02-07T19:54:56.790Z,102897.91
2023-02-07T19:59:59.860Z,102894.50
2023-02-07T20:05:02.855Z,102874.69
2023-02-07T20:10:07.218Z,102885.69
2023-02-07T20:15:11.094Z,102883.91
2023-02-07T20:20:15.406Z,102873.88
2023-02-07T20:25:18.454Z,102910.16
2023-02-07T20:30:21.544Z,102873.72
2023-02-07T20:35:24.875Z,102912.22
2023-02-07T20:40:27.958Z,102921.66
2023-02-07T20:45:31.011Z,102924.16
2023-02-07T20:50:35.231Z,102897.31
2023-02-07T20:55:38.223Z,102925.31
2023-02-07T21:00:41.618Z,102924.38
2023-02-07T21:05:44.840Z,102919.69
2023-02-07T21:10:48.000Z,102903.53
2023-02-07T21:16:02.528Z,102923.72
2023-02-07T21:21:08.178Z,102912.13
2023-02-07T21:26:13.941Z,102938.69
2023-02-07T21:31:20.252Z,102947.75
2023-02-07T21:36:29.152Z,102960.53
2023-02-07T21:41:32.376Z,102914.84
2023-02-07T21:46:39.692Z,102920.97
2023-02-07T21:51:45.588Z,102956.34
2023-02-07T21:56:50.367Z,102955.19
2023-02-07T22:01:54.570Z,102943.63
2023-02-07T22:06:57.840Z,102978.03
2023-02-07T22:12:00.848Z,102942.47
2023-02-07T22:17:03.894Z,102979.56
2023-02-07T22:22:06.880Z,102981.13
2023-02-07T22:27:09.855Z,102985.84
2023-02-07T22:32:12.965Z,102981.75
2023-02-07T22:37:15.932Z,102996.47
2023-02-07T22:42:19.016Z,102964.16
2023-02-07T22:47:22.084Z,103010.75
2023-02-07T22:52:25.114Z,103011.13
2023-02-07T22:57:28.247Z,103014.59
2023-02-07T23:02:31.332Z,102982.03
2023-02-07T23:07:35.268Z,103006.78
2023-02-07T23:12:39.571Z,103001.16
2023-02-07T23:17:42.593Z,103036.25
2023-02-07T23:22:45.706Z,103010.09
2023-02-07T23:27:48.905Z,103011.78
2023-02-07T23:32:51.938Z,102987.03
2023-02-07T23:37:54.982Z,103022.09
2023-02-07T23:42:58.039Z,103001.53
2023-02-07T23:48:02.654Z,103001.06
2023-02-07T23:53:05.770Z,103008.72
2023-02-07T23:58:08.883Z,103012.00
